Time;durP1;ratioP1;P1;durP2;ratioP2;P2;SDS_P1;SDS_P2;PMS_P1;PMS_P2;Temp;Humidity;BMP_temperature;BMP_pressure;BME280_temperature;BME280_humidity;BME280_pressure;Samples;Min_cycle;Max_cycle;Signal;HPM_P1;HPM_P2
2022/03/02 00:01:37;;;;;;;19.10;9.40;;;-3.00;45.40;;;;;;5035134;28;46316;-66
2022/03/02 00:04:03;;;;;;;18.80;8.40;;;-3.00;45.50;;;;;;5034623;28;46688;-65
2022/03/02 00:06:29;;;;;;;18.10;8.30;;;-3.00;45.50;;;;;;5034420;28;46311;-66
2022/03/02 00:08:54;;;;;;;16.13;9.00;;;-3.10;45.60;;;;;;5032584;28;45872;-66
2022/03/02 00:11:20;;;;;;;18.97;8.83;;;-3.20;45.80;;;;;;5031415;28;46379;-66
2022/03/02 00:13:46;;;;;;;20.70;8.80;;;-3.20;45.90;;;;;;5033295;28;46460;-66
2022/03/02 00:16:12;;;;;;;16.07;8.23;;;-3.20;46.00;;;;;;5035193;28;46451;-66
2022/03/02 00:18:39;;;;;;;17.85;8.23;;;-3.20;46.10;;;;;;5034340;28;46411;-65
2022/03/02 00:21:04;;;;;;;21.85;8.88;;;-3.30;46.10;;;;;;5035357;28;46510;-66
2022/03/02 00:23:30;;;;;;;19.60;9.30;;;-3.20;46.60;;;;;;5036520;28;46002;-66
2022/03/02 00:25:56;;;;;;;17.70;8.90;;;-3.20;46.90;;;;;;5035996;28;46275;-65
2022/03/02 00:28:22;;;;;;;16.02;8.38;;;-3.20;47.10;;;;;;5034657;28;45812;-65
2022/03/02 00:30:48;;;;;;;12.57;7.10;;;-3.20;46.90;;;;;;5033538;28;46486;-65
2022/03/02 00:33:14;;;;;;;14.77;8.07;;;-3.10;46.90;;;;;;5031752;28;46163;-65
2022/03/02 00:35:40;;;;;;;13.57;8.10;;;-3.20;46.80;;;;;;5032715;28;46450;-66
2022/03/02 00:38:10;;;;;;;17.53;9.13;;;-3.20;46.90;;;;;;5031452;28;46407;-66
2022/03/02 00:40:37;;;;;;;14.10;8.25;;;-3.20;47.00;;;;;;5029372;28;46601;-66
2022/03/02 00:43:04;;;;;;;14.85;8.85;;;-3.20;47.10;;;;;;5035587;28;47440;-65
2022/03/02 00:45:31;;;;;;;16.20;7.72;;;-3.20;47.20;;;;;;5034080;28;46612;-66
2022/03/02 00:47:58;;;;;;;17.20;8.10;;;-3.30;47.10;;;;;;5031748;28;46700;-65
2022/03/02 00:50:23;;;;;;;14.63;7.82;;;-3.30;47.00;;;;;;5035224;28;46493;-66
2022/03/02 00:52:49;;;;;;;14.33;8.07;;;-3.30;47.10;;;;;;5033851;28;46395;-65
2022/03/02 00:55:15;;;;;;;15.63;8.15;;;-3.30;47.00;;;;;;5029476;28;46228;-66
2022/03/02 00:57:41;;;;;;;14.80;8.40;;;-3.30;47.00;;;;;;5029535;28;46387;-67
2022/03/02 01:00:07;;;;;;;18.50;8.03;;;-3.30;47.20;;;;;;5032716;28;46668;-65
2022/03/02 01:02:33;;;;;;;15.45;7.30;;;-3.30;47.20;;;;;;5033808;28;46405;-66
2022/03/02 01:04:58;;;;;;;16.90;8.70;;;-3.40;47.30;;;;;;5033890;28;46368;-66
2022/03/02 01:07:24;;;;;;;19.87;9.03;;;-3.50;47.40;;;;;;5031609;28;46388;-65
2022/03/02 01:09:50;;;;;;;13.23;7.20;;;-3.60;47.40;;;;;;5029798;28;46493;-66
2022/03/02 01:12:15;;;;;;;13.67;8.03;;;-3.60;47.60;;;;;;5033464;28;46405;-66
2022/03/02 01:14:41;;;;;;;15.43;7.60;;;-3.70;47.60;;;;;;5034759;28;46413;-66
2022/03/02 01:17:07;;;;;;;11.87;7.87;;;-3.70;47.80;;;;;;5027832;28;45791;-66
2022/03/02 01:19:33;;;;;;;10.53;6.43;;;-3.80;47.70;;;;;;5030611;28;46661;-66
2022/03/02 01:21:58;;;;;;;15.50;7.80;;;-3.80;47.70;;;;;;5027614;28;46417;-66
2022/03/02 01:24:24;;;;;;;21.83;7.70;;;-3.80;47.60;;;;;;5031296;28;46371;-65
2022/03/02 01:26:49;;;;;;;13.97;8.03;;;-3.70;47.70;;;;;;4988016;28;1248227;-66
2022/03/02 01:29:15;;;;;;;11.47;7.30;;;-3.70;47.60;;;;;;5034783;28;46620;-66
2022/03/02 01:31:41;;;;;;;13.70;8.33;;;-3.70;47.60;;;;;;5035657;28;46315;-66
2022/03/02 01:34:07;;;;;;;13.80;7.50;;;-3.70;47.60;;;;;;5036895;28;46238;-65
2022/03/02 01:36:32;;;;;;;17.90;8.17;;;-3.70;47.50;;;;;;5033906;28;46471;-66
2022/03/02 01:38:58;;;;;;;16.53;7.77;;;-3.70;47.40;;;;;;5033436;28;46391;-65
2022/03/02 01:41:25;;;;;;;14.70;7.57;;;-3.60;47.50;;;;;;5029965;28;46824;-66
2022/03/02 01:43:53;;;;;;;14.00;8.10;;;-3.50;49.00;;;;;;5030628;28;46388;-65
2022/03/02 01:46:19;;;;;;;12.13;6.75;;;-3.40;49.30;;;;;;5029366;28;46038;-65
2022/03/02 01:48:46;;;;;;;13.98;7.32;;;-3.40;49.00;;;;;;5027437;28;46279;-66
2022/03/02 01:51:12;;;;;;;13.32;6.70;;;-3.30;49.80;;;;;;5026999;28;46250;-65
2022/03/02 01:53:38;;;;;;;13.63;8.13;;;-3.30;50.10;;;;;;5030201;28;46267;-66
2022/03/02 01:56:04;;;;;;;11.65;7.45;;;-3.20;49.90;;;;;;5036125;28;46281;-65
2022/03/02 01:58:30;;;;;;;13.07;8.00;;;-3.20;49.80;;;;;;5036369;28;46483;-65
2022/03/02 02:00:59;;;;;;;16.40;8.60;;;-3.20;49.90;;;;;;5037258;28;47059;-65
2022/03/02 02:03:25;;;;;;;18.70;10.77;;;-3.20;49.80;;;;;;5032042;28;46811;-65
2022/03/02 02:05:51;;;;;;;19.40;9.40;;;-3.20;49.80;;;;;;5032291;28;46373;-66
2022/03/02 02:08:17;;;;;;;12.97;7.37;;;-3.40;50.10;;;;;;5037101;28;46210;-66
2022/03/02 02:10:43;;;;;;;11.57;6.70;;;-3.50;50.30;;;;;;5030347;28;46387;-66
2022/03/02 02:13:08;;;;;;;13.37;7.10;;;-3.70;50.30;;;;;;5030398;28;46524;-65
2022/03/02 02:15:34;;;;;;;11.67;6.53;;;-3.80;50.40;;;;;;5031795;28;46338;-65
2022/03/02 02:18:00;;;;;;;12.03;6.73;;;-3.90;51.60;;;;;;5035443;28;46429;-66
2022/03/02 02:20:25;;;;;;;13.33;7.10;;;-3.90;50.30;;;;;;5028890;28;47265;-65
2022/03/02 02:22:51;;;;;;;14.00;7.97;;;-3.90;50.20;;;;;;5029494;28;46552;-66
2022/03/02 02:25:18;;;;;;;10.77;6.75;;;-3.90;50.20;;;;;;5029489;28;45821;-65
2022/03/02 02:27:45;;;;;;;14.05;7.30;;;-3.90;50.00;;;;;;5032870;28;45819;-66
2022/03/02 02:30:13;;;;;;;12.82;7.30;;;-3.90;50.10;;;;;;5033060;28;47320;-67
2022/03/02 02:32:39;;;;;;;12.60;7.70;;;-3.80;50.00;;;;;;5028256;28;46322;-66
2022/03/02 02:35:08;;;;;;;14.75;8.18;;;-3.90;49.90;;;;;;5027958;28;46318;-66
2022/03/02 02:37:35;;;;;;;17.73;8.02;;;-3.90;49.80;;;;;;5035846;28;46480;-65
2022/03/02 02:40:07;;;;;;;12.57;7.00;;;-3.90;49.80;;;;;;5034478;28;46377;-66
2022/03/02 02:42:34;;;;;;;14.88;7.30;;;-3.90;49.90;;;;;;5032883;28;46307;-65
2022/03/02 02:44:59;;;;;;;10.63;7.35;;;-3.90;49.90;;;;;;5033533;28;46618;-66
2022/03/02 02:47:25;;;;;;;13.53;8.17;;;-3.90;50.00;;;;;;5034407;28;46308;-66
2022/03/02 02:49:51;;;;;;;15.30;7.87;;;-3.90;50.00;;;;;;5032852;28;47264;-66
2022/03/02 02:52:16;;;;;;;12.47;7.30;;;-4.00;50.00;;;;;;5030526;28;46660;-66
2022/03/02 02:54:43;;;;;;;14.37;8.07;;;-4.00;50.10;;;;;;5032723;28;46350;-66
2022/03/02 02:57:09;;;;;;;13.50;7.80;;;-4.00;50.00;;;;;;5031593;28;45950;-66
2022/03/02 02:59:34;;;;;;;15.40;8.13;;;-4.00;50.00;;;;;;5026909;28;46605;-66
2022/03/02 03:02:00;;;;;;;14.43;7.87;;;-3.90;50.40;;;;;;5029289;28;46465;-66
2022/03/02 03:04:26;;;;;;;16.07;7.93;;;-3.80;50.30;;;;;;5028099;28;46687;-67
2022/03/02 03:06:51;;;;;;;15.40;7.60;;;-3.80;50.20;;;;;;5029472;28;46567;-66
2022/03/02 03:09:17;;;;;;;11.60;6.00;;;-3.70;50.20;;;;;;5027734;28;46637;-66
2022/03/02 03:11:43;;;;;;;20.87;7.40;;;-3.80;50.30;;;;;;5027169;28;46549;-64
2022/03/02 03:14:10;;;;;;;14.10;7.20;;;-3.80;50.20;;;;;;5025719;28;46657;-66
2022/03/02 03:16:36;;;;;;;18.38;7.85;;;-3.90;50.40;;;;;;5028214;28;46425;-66
2022/03/02 03:19:02;;;;;;;19.40;8.80;;;-4.00;50.50;;;;;;5024748;28;46432;-66
2022/03/02 03:21:28;;;;;;;13.57;6.95;;;-4.00;50.50;;;;;;5027385;28;46484;-67
2022/03/02 03:23:53;;;;;;;9.63;6.33;;;-4.10;50.50;;;;;;5025829;28;46441;-65
2022/03/02 03:26:19;;;;;;;11.50;6.53;;;-4.00;50.60;;;;;;5026227;28;46531;-66
2022/03/02 03:28:45;;;;;;;12.97;6.60;;;-4.10;50.70;;;;;;5035560;28;49144;-65
2022/03/02 03:31:10;;;;;;;14.67;6.87;;;-4.20;50.60;;;;;;5029368;28;46496;-65
2022/03/02 03:33:36;;;;;;;15.30;7.20;;;-4.20;50.60;;;;;;5026278;28;46448;-66
2022/03/02 03:36:02;;;;;;;12.37;6.40;;;-4.20;50.60;;;;;;5029954;28;46462;-66
2022/03/02 03:38:28;;;;;;;14.95;7.32;;;-4.20;50.50;;;;;;5027615;28;47108;-66
2022/03/02 03:40:53;;;;;;;11.73;7.00;;;-4.20;50.70;;;;;;5031077;28;46426;-66
2022/03/02 03:43:19;;;;;;;12.27;7.80;;;-4.20;50.60;;;;;;5029274;28;46429;-66
2022/03/02 03:45:44;;;;;;;14.23;7.43;;;-4.10;50.70;;;;;;5034435;28;46824;-67
2022/03/02 03:48:10;;;;;;;14.93;7.00;;;-4.10;50.60;;;;;;5035625;28;47014;-65
2022/03/02 03:50:35;;;;;;;12.57;7.30;;;-4.10;50.60;;;;;;5031121;28;46450;-67
2022/03/02 03:53:01;;;;;;;14.10;6.90;;;-4.10;50.50;;;;;;5031652;28;46307;-66
2022/03/02 03:55:27;;;;;;;17.17;7.57;;;-4.10;50.50;;;;;;5030573;28;46367;-66
2022/03/02 03:57:52;;;;;;;14.57;8.30;;;-4.10;50.50;;;;;;5029569;28;49174;-67
2022/03/02 04:00:19;;;;;;;13.67;7.40;;;-4.10;50.60;;;;;;5033904;28;46243;-66
2022/03/02 04:02:46;;;;;;;18.65;9.10;;;-4.10;50.60;;;;;;5028665;28;46393;-68
2022/03/02 04:05:12;;;;;;;14.32;7.70;;;-4.10;50.50;;;;;;5028888;28;46466;-67
2022/03/02 04:07:38;;;;;;;18.20;8.93;;;-4.10;50.40;;;;;;5027373;28;46269;-67
2022/03/02 04:10:08;;;;;;;20.00;9.97;;;-4.00;50.50;;;;;;5026449;28;46423;-67
2022/03/02 04:12:34;;;;;;;13.15;8.80;;;-4.00;50.40;;;;;;5022150;28;46386;-67
2022/03/02 04:15:00;;;;;;;18.52;9.48;;;-3.90;50.40;;;;;;5033561;28;46545;-66
2022/03/02 04:17:26;;;;;;;14.73;8.47;;;-3.90;50.30;;;;;;5038354;28;47355;-67
2022/03/02 04:19:51;;;;;;;13.17;7.93;;;-3.90;50.30;;;;;;5037888;28;46369;-66
2022/03/02 04:22:17;;;;;;;14.00;8.13;;;-3.90;50.30;;;;;;5037917;28;46314;-67
2022/03/02 04:24:43;;;;;;;13.23;8.25;;;-3.90;50.40;;;;;;5036265;28;46453;-66
2022/03/02 04:27:08;;;;;;;12.80;7.53;;;-3.90;50.50;;;;;;5033208;28;46446;-66
2022/03/02 04:29:34;;;;;;;16.10;8.40;;;-4.00;50.50;;;;;;5033373;28;45808;-66
2022/03/02 04:32:00;;;;;;;15.57;8.47;;;-3.90;50.50;;;;;;5033779;28;46338;-67
2022/03/02 04:34:26;;;;;;;12.80;7.10;;;-3.90;50.40;;;;;;5031649;28;46908;-67
2022/03/02 04:36:52;;;;;;;36.60;7.87;;;-3.80;50.40;;;;;;5029406;28;46397;-66
2022/03/02 04:39:17;;;;;;;19.90;8.87;;;-3.80;50.20;;;;;;5030648;28;46343;-65
2022/03/02 04:41:43;;;;;;;14.47;7.70;;;-3.80;50.30;;;;;;5031997;28;46308;-66
2022/03/02 04:44:09;;;;;;;15.95;7.75;;;-3.80;50.20;;;;;;5039025;28;46315;-66
2022/03/02 04:46:34;;;;;;;11.27;5.83;;;-3.80;50.20;;;;;;5039342;28;46458;-66
2022/03/02 04:49:10;;;;;;;11.63;6.50;;;-3.80;50.30;;;;;;5031808;28;46465;-67
2022/03/02 04:51:39;;;;;;;14.20;7.80;;;-3.90;51.50;;;;;;5031496;28;46497;-66
2022/03/02 04:54:05;;;;;;;16.23;6.45;;;-3.90;50.40;;;;;;5036883;28;46316;-65
2022/03/02 04:56:31;;;;;;;12.48;6.85;;;-3.90;50.40;;;;;;5033381;28;48097;-66
2022/03/02 04:58:56;;;;;;;16.77;6.90;;;-3.80;50.30;;;;;;5030634;28;45732;-67
2022/03/02 05:01:22;;;;;;;11.77;6.90;;;-3.80;50.20;;;;;;5035438;28;46386;-67
2022/03/02 05:03:47;;;;;;;14.50;7.70;;;-3.80;50.20;;;;;;5035579;28;46293;-67
2022/03/02 05:06:13;;;;;;;13.50;6.60;;;-3.80;50.10;;;;;;5030138;28;47505;-67
2022/03/02 05:08:38;;;;;;;11.10;6.37;;;-3.70;50.10;;;;;;5030914;28;46406;-65
2022/03/02 05:11:04;;;;;;;12.47;7.50;;;-3.70;50.00;;;;;;5028118;28;45767;-67
2022/03/02 05:13:31;;;;;;;13.63;6.70;;;-3.70;50.00;;;;;;5034122;28;46624;-67
2022/03/02 05:15:56;;;;;;;13.27;7.00;;;-3.60;50.00;;;;;;5033254;28;46468;-67
2022/03/02 05:18:22;;;;;;;10.80;6.17;;;-3.60;49.90;;;;;;5030753;28;46402;-66
2022/03/02 05:20:47;;;;;;;13.40;7.30;;;-3.60;50.10;;;;;;5030920;28;46443;-67
2022/03/02 05:23:13;;;;;;;12.93;6.43;;;-3.60;50.10;;;;;;5031190;28;46371;-66
2022/03/02 05:25:38;;;;;;;16.87;7.67;;;-3.60;50.20;;;;;;5035449;28;46369;-66
2022/03/02 05:28:04;;;;;;;11.37;6.60;;;-3.70;50.30;;;;;;5038668;28;46333;-65
2022/03/02 05:30:30;;;;;;;14.00;7.00;;;-3.70;50.50;;;;;;5035043;28;46389;-66
2022/03/02 05:32:56;;;;;;;10.40;6.40;;;-3.80;50.80;;;;;;5033708;28;45958;-66
2022/03/02 05:35:21;;;;;;;10.07;6.43;;;-3.80;50.80;;;;;;5035289;28;46382;-67
2022/03/02 05:37:47;;;;;;;15.07;8.63;;;-3.90;50.90;;;;;;5031259;28;46350;-66
2022/03/02 05:40:16;;;;;;;19.87;8.27;;;-4.00;52.00;;;;;;5033341;28;46418;-67
2022/03/02 05:42:43;;;;;;;12.43;7.55;;;-4.00;52.60;;;;;;5031037;28;46579;-67
2022/03/02 05:45:09;;;;;;;12.65;6.40;;;-4.00;52.40;;;;;;5030734;28;46981;-67
2022/03/02 05:47:36;;;;;;;18.70;9.55;;;-4.00;52.20;;;;;;5031617;28;46150;-65
2022/03/02 05:50:04;;;;;;;21.63;10.40;;;-4.00;52.10;;;;;;5029968;28;46592;-67
2022/03/02 05:52:30;;;;;;;20.38;11.40;;;-3.90;51.90;;;;;;5034821;28;46139;-67
2022/03/02 05:54:55;;;;;;;19.10;8.63;;;-3.90;51.70;;;;;;5031988;28;46453;-66
2022/03/02 05:57:21;;;;;;;19.83;9.67;;;-3.90;51.60;;;;;;5032658;28;46366;-65
2022/03/02 05:59:46;;;;;;;19.50;9.40;;;-3.90;51.60;;;;;;5033931;28;46636;-66
2022/03/02 06:02:12;;;;;;;16.67;9.40;;;-3.90;51.50;;;;;;5035296;28;46675;-67
2022/03/02 06:04:38;;;;;;;17.37;9.37;;;-3.80;51.60;;;;;;5028936;28;46264;-67
2022/03/02 06:07:03;;;;;;;17.17;8.77;;;-3.80;51.60;;;;;;5034500;28;46446;-66
2022/03/02 06:09:29;;;;;;;17.97;9.30;;;-3.80;51.50;;;;;;5029523;28;46394;-67
2022/03/02 06:11:55;;;;;;;16.97;8.30;;;-3.70;51.50;;;;;;5032745;28;46502;-67
2022/03/02 06:14:21;;;;;;;18.70;9.50;;;-3.70;51.40;;;;;;5031015;28;47499;-66
2022/03/02 06:16:47;;;;;;;15.80;9.20;;;-3.70;51.20;;;;;;5031251;28;46372;-66
2022/03/02 06:19:12;;;;;;;16.60;9.67;;;-3.70;51.30;;;;;;5028616;28;46416;-65
2022/03/02 06:21:40;;;;;;;11.60;8.13;;;-3.60;52.20;;;;;;5038353;28;45862;-65
2022/03/02 06:24:06;;;;;;;40.90;24.15;;;-3.60;52.70;;;;;;5037077;28;46450;-65
2022/03/02 06:26:32;;;;;;;90.07;50.45;;;-3.50;52.50;;;;;;5036042;28;45994;-66
2022/03/02 06:28:58;;;;;;;69.97;38.47;;;-3.40;52.30;;;;;;5032743;28;46395;-66
2022/03/02 06:31:24;;;;;;;45.20;23.80;;;-3.30;52.20;;;;;;5025243;28;46681;-66
2022/03/02 06:33:49;;;;;;;30.30;14.90;;;-3.20;51.90;;;;;;5021936;28;46458;-66
2022/03/02 06:36:15;;;;;;;30.37;12.20;;;-3.10;51.80;;;;;;5030595;28;45918;-66
2022/03/02 06:38:41;;;;;;;12.68;7.18;;;-2.90;51.60;;;;;;5024726;28;45982;-66
2022/03/02 06:41:11;;;;;;;18.40;7.60;;;-2.80;51.30;;;;;;5027942;28;46339;-66
2022/03/02 06:43:43;;;;;;;12.20;6.75;;;-2.70;51.20;;;;;;5029695;28;46410;-67
2022/03/02 06:46:23;;;;;;;13.52;7.55;;;-2.50;51.10;;;;;;5031560;28;46731;-66
2022/03/02 06:49:18;;;;;;;12.77;7.75;;;-2.40;51.00;;;;;;5029080;28;46510;-67
2022/03/02 06:51:47;;;;;;;13.15;7.72;;;-2.20;50.90;;;;;;5019320;28;45884;-66
2022/03/02 06:54:18;;;;;;;12.35;7.70;;;-2.00;50.60;;;;;;5028986;28;46292;-65
2022/03/02 06:56:50;;;;;;;13.98;8.07;;;-1.80;50.40;;;;;;5026859;28;46306;-66
2022/03/02 06:59:28;;;;;;;15.85;7.57;;;-1.70;50.20;;;;;;5023511;28;45817;-66
2022/03/02 07:02:01;;;;;;;19.08;8.60;;;-1.50;50.10;;;;;;5032445;28;46493;-66
2022/03/02 07:04:27;;;;;;;14.50;8.38;;;-1.30;50.00;;;;;;5034662;28;46422;-65
2022/03/02 07:06:54;;;;;;;15.73;8.37;;;-1.10;50.00;;;;;;5036165;28;46316;-66
2022/03/02 07:09:20;;;;;;;19.10;7.65;;;-0.90;49.80;;;;;;5035868;28;45754;-67
2022/03/02 07:11:47;;;;;;;21.30;7.53;;;-0.80;49.40;;;;;;5029800;28;46263;-67
2022/03/02 07:14:15;;;;;;;22.27;9.13;;;-0.70;49.40;;;;;;5030098;28;46298;-65
2022/03/02 07:16:43;;;;;;;18.88;10.15;;;-0.50;49.50;;;;;;5033965;28;46468;-65
2022/03/02 07:19:08;;;;;;;20.92;9.95;;;-0.30;49.40;;;;;;5031722;28;46291;-66
2022/03/02 07:21:37;;;;;;;17.17;8.90;;;-0.10;49.00;;;;;;5027430;28;46442;-66
2022/03/02 07:24:15;;;;;;;20.25;10.10;;;0.10;48.80;;;;;;5030227;28;48220;-65
2022/03/02 07:26:51;;;;;;;37.90;14.77;;;0.30;48.70;;;;;;5026876;28;46264;-65
2022/03/02 07:29:19;;;;;;;24.15;11.70;;;0.50;48.60;;;;;;5030403;28;46527;-65
2022/03/02 07:31:45;;;;;;;24.90;9.73;;;0.70;48.40;;;;;;5032643;28;45917;-65
2022/03/02 07:34:13;;;;;;;13.10;7.63;;;0.80;48.20;;;;;;5027319;28;46327;-65
2022/03/02 07:36:40;;;;;;;15.77;7.97;;;1.00;48.10;;;;;;5029961;28;46383;-65
2022/03/02 07:39:07;;;;;;;21.60;9.00;;;1.10;48.10;;;;;;5031537;28;46396;-64
2022/03/02 07:41:32;;;;;;;14.10;8.30;;;1.20;47.90;;;;;;5031736;28;46505;-63
2022/03/02 07:43:58;;;;;;;15.03;6.90;;;1.30;48.10;;;;;;5028963;28;47116;-64
2022/03/02 07:46:28;;;;;;;13.65;7.97;;;1.50;48.20;;;;;;5029574;28;46516;-66
2022/03/02 07:48:54;;;;;;;23.73;9.00;;;1.60;48.10;;;;;;5032241;28;46354;-64
2022/03/02 07:51:20;;;;;;;15.20;8.60;;;1.70;48.20;;;;;;5032836;28;46563;-65
2022/03/02 07:53:51;;;;;;;15.68;9.70;;;1.80;47.90;;;;;;5032984;28;46524;-65
2022/03/02 07:56:18;;;;;;;20.65;8.57;;;2.00;47.80;;;;;;5033997;28;46326;-65
2022/03/02 07:58:43;;;;;;;19.45;10.25;;;2.10;47.70;;;;;;5033603;28;46334;-63
2022/03/02 08:01:18;;;;;;;15.20;7.90;;;2.20;47.60;;;;;;5032848;28;46255;-64
2022/03/02 08:03:44;;;;;;;14.45;7.65;;;2.40;47.30;;;;;;5033404;28;46646;-66
2022/03/02 08:06:10;;;;;;;16.67;7.82;;;2.50;47.00;;;;;;5030534;28;46747;-64
2022/03/02 08:08:37;;;;;;;13.93;7.97;;;2.70;46.50;;;;;;5031225;28;47338;-66
2022/03/02 08:11:04;;;;;;;14.82;8.80;;;2.90;46.60;;;;;;5035909;28;46486;-64
2022/03/02 08:13:31;;;;;;;14.95;7.70;;;3.00;46.60;;;;;;5032626;28;46730;-63
2022/03/02 08:15:58;;;;;;;18.50;6.85;;;3.10;46.60;;;;;;5029545;28;46467;-64
2022/03/02 08:18:23;;;;;;;13.48;7.90;;;3.10;46.60;;;;;;5023888;28;46806;-64
2022/03/02 08:20:51;;;;;;;12.87;8.80;;;3.30;46.90;;;;;;5034025;28;46743;-64
2022/03/02 08:23:19;;;;;;;19.70;8.88;;;3.40;47.00;;;;;;5034853;28;48063;-64
2022/03/02 08:25:52;;;;;;;14.50;9.30;;;3.50;47.00;;;;;;5035048;28;46469;-65
2022/03/02 08:28:19;;;;;;;17.13;8.95;;;3.70;47.20;;;;;;5036401;28;46451;-62
2022/03/02 08:30:52;;;;;;;19.83;8.23;;;3.80;46.70;;;;;;5037326;28;46350;-64
2022/03/02 08:33:29;;;;;;;12.07;8.32;;;3.90;46.50;;;;;;5033360;28;45960;-67
2022/03/02 08:35:56;;;;;;;13.57;8.35;;;4.00;46.70;;;;;;5029996;28;46484;-65
2022/03/02 08:38:23;;;;;;;15.95;9.77;;;4.10;46.60;;;;;;5037574;28;46370;-65
2022/03/02 08:40:49;;;;;;;15.70;8.05;;;4.30;46.50;;;;;;5033620;28;46370;-66
2022/03/02 08:43:15;;;;;;;14.47;7.67;;;4.50;46.10;;;;;;5030778;28;46313;-65
2022/03/02 08:45:46;;;;;;;15.38;8.05;;;4.70;45.90;;;;;;5033202;28;46771;-63
2022/03/02 08:48:14;;;;;;;15.82;9.18;;;4.80;45.70;;;;;;5039170;28;46251;-65
2022/03/02 08:50:41;;;;;;;13.50;8.10;;;4.80;46.70;;;;;;5029258;28;46458;-65
2022/03/02 08:53:07;;;;;;;11.70;8.07;;;4.80;45.50;;;;;;5029174;28;48356;-62
2022/03/02 08:55:33;;;;;;;18.60;8.50;;;5.00;46.60;;;;;;5032162;28;46398;-64
2022/03/02 08:57:59;;;;;;;16.65;8.48;;;5.10;45.40;;;;;;5035683;28;46549;-65
2022/03/02 09:00:25;;;;;;;13.77;8.00;;;5.20;45.20;;;;;;5035267;28;46644;-65
2022/03/02 09:02:52;;;;;;;14.43;8.60;;;5.40;44.90;;;;;;5035333;28;47320;-65
2022/03/02 09:05:18;;;;;;;16.70;9.18;;;5.20;44.60;;;;;;5030924;28;46376;-66
2022/03/02 09:07:45;;;;;;;12.83;7.77;;;5.40;44.60;;;;;;5030348;28;46368;-65
2022/03/02 09:10:11;;;;;;;17.40;8.70;;;5.50;44.40;;;;;;5033943;28;46403;-65
2022/03/02 09:12:40;;;;;;;13.97;7.87;;;5.70;44.30;;;;;;5029750;28;46695;-65
2022/03/02 09:15:06;;;;;;;14.73;8.27;;;5.90;43.80;;;;;;5031618;28;46363;-64
2022/03/02 09:17:31;;;;;;;13.37;7.70;;;5.90;43.40;;;;;;5033927;28;45796;-65
2022/03/02 09:19:57;;;;;;;18.40;8.20;;;5.90;43.80;;;;;;5028022;28;46613;-63
2022/03/02 09:22:24;;;;;;;15.00;8.83;;;5.90;43.70;;;;;;5034943;28;46251;-63
2022/03/02 09:24:51;;;;;;;15.93;8.57;;;6.00;43.90;;;;;;5029308;28;46339;-64
2022/03/02 09:27:19;;;;;;;28.50;13.67;;;6.00;43.80;;;;;;5038720;28;46495;-65
2022/03/02 09:29:46;;;;;;;31.73;15.23;;;6.10;43.20;;;;;;5032082;28;45886;-64
2022/03/02 09:32:13;;;;;;;18.37;7.27;;;6.20;43.00;;;;;;5034805;28;46334;-63
2022/03/02 09:34:43;;;;;;;15.23;8.10;;;6.20;42.90;;;;;;5033146;28;46228;-64
2022/03/02 09:37:09;;;;;;;17.60;7.73;;;6.20;43.00;;;;;;5030731;28;46535;-64
2022/03/02 09:39:35;;;;;;;14.03;8.03;;;6.30;42.70;;;;;;5030659;28;46394;-66
2022/03/02 09:42:14;;;;;;;24.47;7.53;;;6.30;42.30;;;;;;5033046;28;46318;-66
2022/03/02 09:44:47;;;;;;;15.83;7.37;;;6.40;42.10;;;;;;5027428;28;46389;-64
2022/03/02 09:47:21;;;;;;;35.10;14.87;;;6.40;42.10;;;;;;5028877;28;46351;-64
2022/03/02 09:49:57;;;;;;;52.70;21.00;;;6.50;41.90;;;;;;5026974;28;46597;-63
2022/03/02 09:52:24;;;;;;;125.83;49.07;;;6.40;41.40;;;;;;5034452;28;47026;-64
2022/03/02 09:54:53;;;;;;;63.93;25.60;;;6.10;41.20;;;;;;5034690;28;46408;-65
2022/03/02 09:57:20;;;;;;;25.30;12.77;;;5.90;41.60;;;;;;5031887;28;46468;-64
2022/03/02 09:59:54;;;;;;;26.43;12.80;;;6.00;41.90;;;;;;5029701;28;46392;-64
2022/03/02 10:02:40;;;;;;;13.00;7.30;;;6.10;41.40;;;;;;5029657;28;47024;-64
2022/03/02 10:05:10;;;;;;;40.43;20.30;;;6.10;41.60;;;;;;5032511;28;45899;-64
2022/03/02 10:07:40;;;;;;;17.63;6.90;;;6.00;41.00;;;;;;5029383;28;46680;-63
2022/03/02 10:10:14;;;;;;;19.23;10.57;;;6.00;41.50;;;;;;5032552;28;46419;-64
2022/03/02 10:12:41;;;;;;;11.97;7.50;;;6.10;40.60;;;;;;5032008;28;47217;-66
2022/03/02 10:15:09;;;;;;;11.03;7.40;;;6.30;41.10;;;;;;5036066;28;46413;-65
2022/03/02 10:17:38;;;;;;;13.80;7.67;;;6.30;40.80;;;;;;5028666;28;46303;-65
2022/03/02 10:20:09;;;;;;;12.10;7.10;;;6.20;40.90;;;;;;5030624;28;46413;-63
2022/03/02 10:22:40;;;;;;;12.80;6.43;;;6.30;40.60;;;;;;5033146;28;46383;-63
2022/03/02 10:25:48;;;;;;;12.63;6.60;;;6.40;40.10;;;;;;5030768;28;46383;-65
2022/03/02 10:28:24;;;;;;;9.53;5.73;;;6.50;39.70;;;;;;5031375;28;46310;-64
2022/03/02 10:31:02;;;;;;;16.43;6.33;;;6.60;39.60;;;;;;5029086;28;46368;-64
2022/03/02 10:33:37;;;;;;;10.23;6.27;;;6.70;39.40;;;;;;5034137;28;47294;-64
2022/03/02 10:36:06;;;;;;;11.97;6.80;;;6.70;38.30;;;;;;5033352;28;46391;-64
2022/03/02 10:39:04;;;;;;;12.40;7.10;;;6.70;37.80;;;;;;5029743;28;46468;-65
2022/03/02 10:41:35;;;;;;;16.77;7.90;;;7.00;37.20;;;;;;5031328;28;46431;-65
2022/03/02 10:44:09;;;;;;;10.77;6.30;;;7.20;37.00;;;;;;5031793;28;46319;-65
2022/03/02 10:46:45;;;;;;;21.30;6.80;;;7.10;36.90;;;;;;5029911;28;46435;-64
2022/03/02 10:49:20;;;;;;;10.00;6.00;;;7.20;37.00;;;;;;5029653;28;46387;-65
2022/03/02 10:51:46;;;;;;;9.60;6.60;;;7.50;37.20;;;;;;5029671;28;46530;-64
2022/03/02 10:54:18;;;;;;;10.27;6.17;;;7.40;37.20;;;;;;5025796;28;46978;-65
2022/03/02 10:56:44;;;;;;;14.77;6.90;;;7.30;37.10;;;;;;5032527;28;46513;-63
2022/03/02 10:59:17;;;;;;;10.33;5.80;;;7.40;36.90;;;;;;5028983;28;46472;-63
2022/03/02 11:01:45;;;;;;;10.87;5.57;;;7.40;36.70;;;;;;5034785;28;46387;-63
2022/03/02 11:04:12;;;;;;;22.67;12.13;;;7.60;36.00;;;;;;5031526;28;47081;-63
2022/03/02 11:06:38;;;;;;;9.80;5.93;;;7.70;34.80;;;;;;5031057;28;46363;-63
2022/03/02 11:09:05;;;;;;;11.07;6.30;;;7.90;34.70;;;;;;5032100;28;45805;-66
2022/03/02 11:11:36;;;;;;;16.57;6.03;;;8.10;33.70;;;;;;5033913;28;46454;-65
2022/03/02 11:14:03;;;;;;;28.97;12.67;;;8.20;33.30;;;;;;5032644;28;46520;-64
2022/03/02 11:16:28;;;;;;;12.87;6.60;;;8.10;33.20;;;;;;5032513;28;46276;-64
2022/03/02 11:18:55;;;;;;;10.17;5.60;;;8.10;33.30;;;;;;5027865;28;46499;-64
2022/03/02 11:21:28;;;;;;;8.20;4.77;;;8.20;33.00;;;;;;5029502;28;46013;-63
2022/03/02 11:23:56;;;;;;;14.23;6.23;;;8.20;30.40;;;;;;5033340;28;46554;-64
2022/03/02 11:26:30;;;;;;;10.77;5.70;;;8.20;30.90;;;;;;5031874;28;46466;-64
2022/03/02 11:29:00;;;;;;;8.17;5.00;;;8.40;31.00;;;;;;5029647;28;46449;-64
2022/03/02 11:31:29;;;;;;;11.40;5.47;;;8.60;31.10;;;;;;5031247;28;46070;-64
2022/03/02 11:34:17;;;;;;;6.43;4.77;;;8.80;30.80;;;;;;5035937;28;46581;-63
2022/03/02 11:36:45;;;;;;;10.70;5.70;;;8.80;30.00;;;;;;5031414;28;46655;-64
2022/03/02 11:39:13;;;;;;;8.00;5.30;;;8.90;30.50;;;;;;5029348;28;46530;-64
2022/03/02 11:41:42;;;;;;;17.37;6.10;;;9.10;30.50;;;;;;5031565;28;46916;-64
2022/03/02 11:44:26;;;;;;;9.03;5.70;;;9.40;29.80;;;;;;5037819;28;46586;-64
2022/03/02 11:46:52;;;;;;;8.17;4.70;;;9.40;29.20;;;;;;5037644;28;46417;-64
2022/03/02 11:49:18;;;;;;;13.80;5.00;;;9.60;29.50;;;;;;5036913;28;46489;-63
2022/03/02 11:51:43;;;;;;;9.63;6.10;;;9.80;29.20;;;;;;5035885;28;46586;-64
2022/03/02 11:54:10;;;;;;;9.80;5.90;;;9.70;29.00;;;;;;5034863;28;46984;-64
2022/03/02 11:56:37;;;;;;;12.30;5.90;;;9.50;29.30;;;;;;5031193;28;46099;-64
2022/03/02 11:59:09;;;;;;;5.93;4.63;;;9.50;29.20;;;;;;5029243;28;46252;-65
2022/03/02 12:01:51;;;;;;;8.13;5.23;;;9.30;29.00;;;;;;5031124;28;46422;-65
2022/03/02 12:04:17;;;;;;;11.27;5.60;;;9.20;29.10;;;;;;5026753;28;46403;-64
2022/03/02 12:06:45;;;;;;;8.03;5.60;;;9.60;28.90;;;;;;5025211;28;46383;-66
2022/03/02 12:09:23;;;;;;;7.80;5.50;;;10.00;27.40;;;;;;5029190;28;46611;-66
2022/03/02 12:11:48;;;;;;;11.47;6.60;;;10.30;27.20;;;;;;5035473;28;46682;-65
2022/03/02 12:14:15;;;;;;;8.00;5.60;;;10.30;26.90;;;;;;5031090;28;46610;-64
2022/03/02 12:16:44;;;;;;;12.80;5.47;;;10.10;27.00;;;;;;5037132;28;46520;-65
2022/03/02 12:19:26;;;;;;;9.90;6.37;;;9.80;27.90;;;;;;5035170;28;46405;-64
2022/03/02 12:22:00;;;;;;;8.50;5.93;;;9.90;27.80;;;;;;5031739;28;46595;-65
2022/03/02 12:24:29;;;;;;;8.80;5.77;;;9.80;27.20;;;;;;5033341;28;46641;-66
2022/03/02 12:27:20;;;;;;;11.17;6.87;;;9.60;27.30;;;;;;5032336;28;46804;-65
2022/03/02 12:29:53;;;;;;;9.00;6.17;;;9.60;27.70;;;;;;5029869;28;46478;-65
2022/03/02 12:32:19;;;;;;;11.20;6.37;;;9.70;27.90;;;;;;5030249;28;46444;-65
2022/03/02 12:34:47;;;;;;;10.30;6.50;;;9.90;27.70;;;;;;5028939;28;46388;-66
2022/03/02 12:37:15;;;;;;;10.53;6.43;;;9.90;27.30;;;;;;5039036;28;46630;-65
2022/03/02 12:39:42;;;;;;;12.53;6.53;;;9.80;27.80;;;;;;5035993;28;46335;-64
2022/03/02 12:42:09;;;;;;;11.17;6.67;;;10.00;26.90;;;;;;5030493;28;46355;-65
2022/03/02 12:44:44;;;;;;;11.47;7.20;;;9.90;27.80;;;;;;5030121;28;46328;-65